Portada
METAR-TAF:

METAR-TAF

Aeroports :

Aeroport Internacional de Gafsa

Gafsa, Tunísia

latitud: 34-25N, longitud: 008-49E, altitud: 313 m

Observació

L'informe es va fer fa 1 hora i 14 minuts, a les 06:00 UTC
Vent 15 kt del Nord/Nord-Est
Temperatura 14°C
Humitat 94%
Pressió 1015 hPa
Visibilitat: 2000 m
Cel ennuvolat a una alçada de 1300 ft
boirina

METAR: DTTF 160600Z 03015KT 2000 BR BKN013 14/13 Q1015 TEMPO 4000

Hora: 08:14 (07:14 UTC)

Pronòstic

L'informe es va fer fa 1 hora i 14 minuts, a les 06:00 UTC
Pronòstic vàlid del 16 a les 07 UTC al 16 a les 16 UTC
Vent 12 kt del Est/Nord-Est
Visibilitat: 7000 m
Núvols disperses a una alçada de 2300 ft
Temporalment
l' 16 a les 07 UTC al 16 a les 08 UTC
Visibilitat: 3000 m
boirina

TAF: DTTF 160600Z 1607/1616 06012KT 7000 SCT023 TEMPO 1607/1608 3000 BR

Observacions i pronòstics meteorològics de més de 4000 aeroports (METAR i TAF).

Les estacions disponibles són els punts grocs i vermells al mapa.

Posi el ratolí al punt desitjat per veure el nom de l'estació.

Feu clic per veure les observacions i els pronòstics meteorològics.

Per canviar el mapa: feu clic els botons verds amb una creu de color negre per apropar; al botó verd amb un guió per allunyar la imatge; o en les fletxes verdes per a mapes adjacents.


METAR-TAF: